sensor_id;sensor_type;location;lat;lon;timestamp;pressure;altitude;pressure_sealevel;temperature;humidity
12781;BME280;6454;43.304;24.344;2023-04-07T00:00:51;100128.16;;;4.38;65.71
12781;BME280;6454;43.304;24.344;2023-04-07T00:03:19;99991.53;;;3.48;66.34
12781;BME280;6454;43.304;24.344;2023-04-07T00:05:46;99937.34;;;3.13;65.91
12781;BME280;6454;43.304;24.344;2023-04-07T00:08:13;100114.91;;;4.31;65.27
12781;BME280;6454;43.304;24.344;2023-04-07T00:10:40;100118.59;;;4.25;65.93
12781;BME280;6454;43.304;24.344;2023-04-07T00:13:07;100129.63;;;4.29;65.95
12781;BME280;6454;43.304;24.344;2023-04-07T00:15:33;100125.06;;;4.29;66.03
12781;BME280;6454;43.304;24.344;2023-04-07T00:18:01;100121.28;;;4.25;66.30
12781;BME280;6454;43.304;24.344;2023-04-07T00:20:30;100120.06;;;4.16;65.44
12781;BME280;6454;43.304;24.344;2023-04-07T00:22:56;100118.44;;;4.15;64.66
12781;BME280;6454;43.304;24.344;2023-04-07T00:25:23;100114.69;;;4.16;65.20
12781;BME280;6454;43.304;24.344;2023-04-07T00:27:50;100118.78;;;4.19;64.79
12781;BME280;6454;43.304;24.344;2023-04-07T00:30:17;100075.25;;;4.00;65.59
12781;BME280;6454;43.304;24.344;2023-04-07T00:32:44;100112.56;;;4.18;65.41
12781;BME280;6454;43.304;24.344;2023-04-07T00:35:10;100027.69;;;3.62;64.69
12781;BME280;6454;43.304;24.344;2023-04-07T00:37:39;100008.69;;;3.64;64.82
12781;BME280;6454;43.304;24.344;2023-04-07T00:40:07;100111.44;;;4.31;65.12
12781;BME280;6454;43.304;24.344;2023-04-07T00:42:33;100114.91;;;4.31;65.31
12781;BME280;6454;43.304;24.344;2023-04-07T00:45:01;99909.97;;;3.11;65.14
12781;BME280;6454;43.304;24.344;2023-04-07T00:47:28;99998.94;;;3.58;64.52
12781;BME280;6454;43.304;24.344;2023-04-07T00:49:54;100108.41;;;4.27;64.40
12781;BME280;6454;43.304;24.344;2023-04-07T00:52:22;100108.00;;;4.35;64.15
12781;BME280;6454;43.304;24.344;2023-04-07T00:54:54;100115.22;;;4.35;64.53
12781;BME280;6454;43.304;24.344;2023-04-07T00:57:21;100019.22;;;3.87;64.92
12781;BME280;6454;43.304;24.344;2023-04-07T00:59:48;99827.06;;;2.54;65.01
12781;BME280;6454;43.304;24.344;2023-04-07T01:02:17;100111.44;;;4.31;64.88
12781;BME280;6454;43.304;24.344;2023-04-07T01:04:50;100109.78;;;4.30;64.69
12781;BME280;6454;43.304;24.344;2023-04-07T01:07:21;100104.75;;;4.33;64.43
12781;BME280;6454;43.304;24.344;2023-04-07T01:09:57;100067.16;;;4.17;65.25
12781;BME280;6454;43.304;24.344;2023-04-07T01:12:34;100101.41;;;4.43;65.02
12781;BME280;6454;43.304;24.344;2023-04-07T01:15:08;100103.00;;;4.44;64.90
12781;BME280;6454;43.304;24.344;2023-04-07T01:17:36;100104.72;;;4.50;64.81
12781;BME280;6454;43.304;24.344;2023-04-07T01:20:06;100101.94;;;4.45;65.38
12781;BME280;6454;43.304;24.344;2023-04-07T01:22:42;100108.97;;;4.46;65.46
12781;BME280;6454;43.304;24.344;2023-04-07T01:25:30;100100.56;;;4.42;65.63
12781;BME280;6454;43.304;24.344;2023-04-07T01:28:13;100095.63;;;4.34;65.58
12781;BME280;6454;43.304;24.344;2023-04-07T01:30:43;100096.91;;;4.32;65.24
12781;BME280;6454;43.304;24.344;2023-04-07T01:33:11;100097.41;;;4.29;65.05
12781;BME280;6454;43.304;24.344;2023-04-07T01:35:40;100070.44;;;4.02;65.23
12781;BME280;6454;43.304;24.344;2023-04-07T01:38:08;100091.91;;;4.19;65.32
12781;BME280;6454;43.304;24.344;2023-04-07T01:40:36;100097.28;;;4.19;65.43
12781;BME280;6454;43.304;24.344;2023-04-07T01:43:04;100094.97;;;4.27;65.20
12781;BME280;6454;43.304;24.344;2023-04-07T01:45:33;100091.56;;;4.32;65.36
12781;BME280;6454;43.304;24.344;2023-04-07T01:48:04;100054.66;;;3.89;65.70
12781;BME280;6454;43.304;24.344;2023-04-07T01:50:32;100035.41;;;3.75;65.49
12781;BME280;6454;43.304;24.344;2023-04-07T01:53:00;100090.09;;;4.41;64.59
12781;BME280;6454;43.304;24.344;2023-04-07T01:55:29;100089.56;;;4.44;64.72
12781;BME280;6454;43.304;24.344;2023-04-07T01:57:56;100091.78;;;4.47;64.50
12781;BME280;6454;43.304;24.344;2023-04-07T02:00:23;100084.53;;;4.47;64.40
12781;BME280;6454;43.304;24.344;2023-04-07T02:02:54;100080.97;;;4.42;63.87
12781;BME280;6454;43.304;24.344;2023-04-07T02:05:26;100091.28;;;4.50;63.22
12781;BME280;6454;43.304;24.344;2023-04-07T02:07:59;100096.66;;;4.50;63.25
12781;BME280;6454;43.304;24.344;2023-04-07T02:10:28;99948.06;;;3.46;63.40
12781;BME280;6454;43.304;24.344;2023-04-07T02:12:56;100094.09;;;4.60;63.87
12781;BME280;6454;43.304;24.344;2023-04-07T02:15:25;100015.59;;;4.15;64.12
12781;BME280;6454;43.304;24.344;2023-04-07T02:17:55;100096.66;;;4.72;64.14
12781;BME280;6454;43.304;24.344;2023-04-07T02:20:23;100095.53;;;4.68;64.20
12781;BME280;6454;43.304;24.344;2023-04-07T02:22:51;100022.22;;;4.29;63.75
12781;BME280;6454;43.304;24.344;2023-04-07T02:25:24;100063.03;;;4.47;63.74
12781;BME280;6454;43.304;24.344;2023-04-07T02:27:52;100082.72;;;4.75;63.64
12781;BME280;6454;43.304;24.344;2023-04-07T02:30:20;100087.91;;;4.81;63.79
12781;BME280;6454;43.304;24.344;2023-04-07T02:32:47;100090.09;;;4.84;63.69
12781;BME280;6454;43.304;24.344;2023-04-07T02:35:14;100092.50;;;4.81;63.34
12781;BME280;6454;43.304;24.344;2023-04-07T02:37:41;100088.56;;;4.88;63.51
12781;BME280;6454;43.304;24.344;2023-04-07T02:40:10;100085.56;;;4.85;63.68
12781;BME280;6454;43.304;24.344;2023-04-07T02:42:38;99933.00;;;3.78;63.71
12781;BME280;6454;43.304;24.344;2023-04-07T02:45:05;100081.56;;;4.66;63.59
12781;BME280;6454;43.304;24.344;2023-04-07T02:47:33;100088.25;;;4.63;63.52
12781;BME280;6454;43.304;24.344;2023-04-07T02:50:00;100095.41;;;4.79;63.11
12781;BME280;6454;43.304;24.344;2023-04-07T02:52:27;100092.94;;;4.73;63.94
12781;BME280;6454;43.304;24.344;2023-04-07T02:54:54;100097.97;;;4.69;64.12
12781;BME280;6454;43.304;24.344;2023-04-07T02:57:22;100105.97;;;4.64;63.90
12781;BME280;6454;43.304;24.344;2023-04-07T02:59:49;100103.06;;;4.66;63.79
12781;BME280;6454;43.304;24.344;2023-04-07T03:02:16;100101.53;;;4.75;63.70
12781;BME280;6454;43.304;24.344;2023-04-07T03:04:43;100101.88;;;4.78;63.86
12781;BME280;6454;43.304;24.344;2023-04-07T03:07:10;100027.50;;;4.19;64.38
12781;BME280;6454;43.304;24.344;2023-04-07T03:09:37;100025.44;;;4.26;64.41
12781;BME280;6454;43.304;24.344;2023-04-07T03:12:04;100100.03;;;4.84;63.99
12781;BME280;6454;43.304;24.344;2023-04-07T03:14:32;100107.94;;;4.90;63.96
12781;BME280;6454;43.304;24.344;2023-04-07T03:16:59;100076.19;;;4.87;63.89
12781;BME280;6454;43.304;24.344;2023-04-07T03:19:26;100103.44;;;4.96;63.87
12781;BME280;6454;43.304;24.344;2023-04-07T03:21:53;100098.63;;;4.98;63.89
12781;BME280;6454;43.304;24.344;2023-04-07T03:24:19;100101.31;;;4.98;63.80
12781;BME280;6454;43.304;24.344;2023-04-07T03:26:46;100008.78;;;4.45;64.24
12781;BME280;6454;43.304;24.344;2023-04-07T03:29:13;99979.28;;;4.29;64.24
12781;BME280;6454;43.304;24.344;2023-04-07T03:31:41;100100.09;;;5.10;63.53
12781;BME280;6454;43.304;24.344;2023-04-07T03:34:08;100105.72;;;5.09;62.85
12781;BME280;6454;43.304;24.344;2023-04-07T03:36:35;100107.34;;;5.10;62.98
12781;BME280;6454;43.304;24.344;2023-04-07T03:39:02;100105.38;;;5.00;63.36
12781;BME280;6454;43.304;24.344;2023-04-07T03:41:29;100107.28;;;5.05;63.25
12781;BME280;6454;43.304;24.344;2023-04-07T03:43:56;100104.72;;;5.15;63.51
12781;BME280;6454;43.304;24.344;2023-04-07T03:46:23;100106.91;;;5.18;63.27
12781;BME280;6454;43.304;24.344;2023-04-07T03:48:52;100105.28;;;5.17;63.28
12781;BME280;6454;43.304;24.344;2023-04-07T03:51:19;100111.97;;;5.14;63.65
12781;BME280;6454;43.304;24.344;2023-04-07T03:53:46;100114.50;;;5.26;63.52
12781;BME280;6454;43.304;24.344;2023-04-07T03:56:13;100120.22;;;5.30;63.70
12781;BME280;6454;43.304;24.344;2023-04-07T03:58:41;100126.91;;;5.27;63.63
12781;BME280;6454;43.304;24.344;2023-04-07T04:01:08;100120.91;;;5.20;63.51
12781;BME280;6454;43.304;24.344;2023-04-07T04:03:35;100124.97;;;5.22;63.45
12781;BME280;6454;43.304;24.344;2023-04-07T04:06:04;100125.28;;;5.26;63.76
12781;BME280;6454;43.304;24.344;2023-04-07T04:08:31;100070.78;;;4.87;64.18
12781;BME280;6454;43.304;24.344;2023-04-07T04:10:58;100094.97;;;5.09;64.70
12781;BME280;6454;43.304;24.344;2023-04-07T04:13:25;99744.59;;;2.90;64.79
12781;BME280;6454;43.304;24.344;2023-04-07T04:15:52;100132.34;;;5.32;64.82
12781;BME280;6454;43.304;24.344;2023-04-07T04:18:18;100132.06;;;5.34;64.87
12781;BME280;6454;43.304;24.344;2023-04-07T04:20:45;100129.66;;;5.32;64.77
12781;BME280;6454;43.304;24.344;2023-04-07T04:23:14;100142.91;;;5.39;64.69
12781;BME280;6454;43.304;24.344;2023-04-07T04:25:41;100136.97;;;5.37;65.07
12781;BME280;6454;43.304;24.344;2023-04-07T04:28:08;100094.72;;;5.10;64.65
12781;BME280;6454;43.304;24.344;2023-04-07T04:30:35;100055.06;;;4.96;63.10
12781;BME280;6454;43.304;24.344;2023-04-07T04:33:02;100137.63;;;5.49;63.33
12781;BME280;6454;43.304;24.344;2023-04-07T04:35:29;100151.06;;;5.49;63.67
12781;BME280;6454;43.304;24.344;2023-04-07T04:37:55;100141.13;;;5.49;64.32
12781;BME280;6454;43.304;24.344;2023-04-07T04:40:24;100150.56;;;5.52;65.01
12781;BME280;6454;43.304;24.344;2023-04-07T04:42:51;100146.47;;;5.44;65.51
12781;BME280;6454;43.304;24.344;2023-04-07T04:45:18;100156.22;;;5.50;65.28
12781;BME280;6454;43.304;24.344;2023-04-07T04:47:44;100154.13;;;5.57;65.60
12781;BME280;6454;43.304;24.344;2023-04-07T04:50:11;100155.50;;;5.60;65.80
12781;BME280;6454;43.304;24.344;2023-04-07T04:52:38;100155.78;;;5.63;65.90
12781;BME280;6454;43.304;24.344;2023-04-07T04:55:06;100157.38;;;5.59;65.18
12781;BME280;6454;43.304;24.344;2023-04-07T04:57:35;100155.50;;;5.60;65.16
12781;BME280;6454;43.304;24.344;2023-04-07T05:00:03;100162.47;;;5.56;65.33
12781;BME280;6454;43.304;24.344;2023-04-07T05:02:30;100113.13;;;5.23;63.80
12781;BME280;6454;43.304;24.344;2023-04-07T05:04:57;100177.03;;;5.60;63.48
12781;BME280;6454;43.304;24.344;2023-04-07T05:07:24;100189.22;;;5.67;63.71
12781;BME280;6454;43.304;24.344;2023-04-07T05:09:51;100119.78;;;5.38;63.66
12781;BME280;6454;43.304;24.344;2023-04-07T05:12:18;100193.84;;;5.72;63.86
12781;BME280;6454;43.304;24.344;2023-04-07T05:14:46;100198.13;;;5.68;63.76
12781;BME280;6454;43.304;24.344;2023-04-07T05:17:13;100149.84;;;5.35;63.53
12781;BME280;6454;43.304;24.344;2023-04-07T05:19:40;100199.53;;;5.75;63.80
12781;BME280;6454;43.304;24.344;2023-04-07T05:22:06;100205.34;;;5.89;63.64
12781;BME280;6454;43.304;24.344;2023-04-07T05:24:33;100207.91;;;6.01;62.64
12781;BME280;6454;43.304;24.344;2023-04-07T05:27:00;100213.53;;;5.99;62.27
12781;BME280;6454;43.304;24.344;2023-04-07T05:29:27;100205.97;;;5.96;61.02
12781;BME280;6454;43.304;24.344;2023-04-07T05:31:55;100143.97;;;5.64;61.04
12781;BME280;6454;43.304;24.344;2023-04-07T05:34:22;100151.09;;;5.75;61.69
12781;BME280;6454;43.304;24.344;2023-04-07T05:36:49;100183.91;;;5.99;62.17
12781;BME280;6454;43.304;24.344;2023-04-07T05:39:15;100203.41;;;6.11;63.10
12781;BME280;6454;43.304;24.344;2023-04-07T05:41:42;100102.69;;;5.54;62.70
12781;BME280;6454;43.304;24.344;2023-04-07T05:44:09;100145.03;;;5.85;62.33
12781;BME280;6454;43.304;24.344;2023-04-07T05:46:36;100206.22;;;6.26;61.74
12781;BME280;6454;43.304;24.344;2023-04-07T05:49:04;100213.53;;;6.31;62.03
12781;BME280;6454;43.304;24.344;2023-04-07T05:51:31;100175.16;;;6.14;61.63
12781;BME280;6454;43.304;24.344;2023-04-07T05:54:00;100131.91;;;5.94;62.03
12781;BME280;6454;43.304;24.344;2023-04-07T05:56:28;100078.53;;;5.59;61.77
12781;BME280;6454;43.304;24.344;2023-04-07T05:58:55;100227.19;;;6.51;61.91
12781;BME280;6454;43.304;24.344;2023-04-07T06:01:23;100209.72;;;6.59;61.30
12781;BME280;6454;43.304;24.344;2023-04-07T06:03:50;100214.63;;;6.67;61.32
12781;BME280;6454;43.304;24.344;2023-04-07T06:06:18;100213.03;;;6.71;60.80
12781;BME280;6454;43.304;24.344;2023-04-07T06:08:45;100217.06;;;6.68;60.10
12781;BME280;6454;43.304;24.344;2023-04-07T06:11:12;100213.63;;;6.73;60.38
12781;BME280;6454;43.304;24.344;2023-04-07T06:13:39;100211.50;;;6.80;60.07
12781;BME280;6454;43.304;24.344;2023-04-07T06:16:06;100151.94;;;6.39;60.18
12781;BME280;6454;43.304;24.344;2023-04-07T06:18:33;100142.06;;;6.55;60.49
12781;BME280;6454;43.304;24.344;2023-04-07T06:21:00;100206.47;;;6.98;60.22
12781;BME280;6454;43.304;24.344;2023-04-07T06:23:28;100179.09;;;6.70;59.54
12781;BME280;6454;43.304;24.344;2023-04-07T06:25:55;100124.47;;;6.42;59.00
12781;BME280;6454;43.304;24.344;2023-04-07T06:28:22;100211.69;;;7.10;58.02
12781;BME280;6454;43.304;24.344;2023-04-07T06:30:49;100150.81;;;6.77;58.22
12781;BME280;6454;43.304;24.344;2023-04-07T06:33:16;100212.72;;;7.04;57.94
12781;BME280;6454;43.304;24.344;2023-04-07T06:35:43;100212.00;;;7.24;57.95
12781;BME280;6454;43.304;24.344;2023-04-07T06:38:10;100219.06;;;7.30;57.36
12781;BME280;6454;43.304;24.344;2023-04-07T06:40:38;100221.47;;;7.31;57.00
12781;BME280;6454;43.304;24.344;2023-04-07T06:43:05;100223.38;;;7.36;56.65
12781;BME280;6454;43.304;24.344;2023-04-07T06:45:32;100222.06;;;7.43;56.24
12781;BME280;6454;43.304;24.344;2023-04-07T06:47:59;100200.41;;;7.28;56.33
12781;BME280;6454;43.304;24.344;2023-04-07T06:50:26;100227.53;;;7.63;56.77
12781;BME280;6454;43.304;24.344;2023-04-07T06:52:53;100231.94;;;7.79;57.20
12781;BME280;6454;43.304;24.344;2023-04-07T06:55:19;100231.41;;;7.83;55.87
12781;BME280;6454;43.304;24.344;2023-04-07T06:57:48;100235.72;;;7.94;55.32
12781;BME280;6454;43.304;24.344;2023-04-07T07:00:17;100232.22;;;7.98;54.88
12781;BME280;6454;43.304;24.344;2023-04-07T07:02:44;100209.22;;;7.75;53.49
12781;BME280;6454;43.304;24.344;2023-04-07T07:05:11;100237.94;;;8.12;53.53
12781;BME280;6454;43.304;24.344;2023-04-07T07:07:38;100237.66;;;8.18;53.32
12781;BME280;6454;43.304;24.344;2023-04-07T07:10:07;100156.03;;;7.81;52.61
12781;BME280;6454;43.304;24.344;2023-04-07T07:12:34;100236.38;;;8.41;52.22
12781;BME280;6454;43.304;24.344;2023-04-07T07:15:04;100238.53;;;8.44;53.10
12781;BME280;6454;43.304;24.344;2023-04-07T07:17:31;100242.88;;;8.40;51.53
12781;BME280;6454;43.304;24.344;2023-04-07T07:19:57;100243.94;;;8.39;51.39
12781;BME280;6454;43.304;24.344;2023-04-07T07:22:24;100246.91;;;8.53;51.37
12781;BME280;6454;43.304;24.344;2023-04-07T07:24:51;100182.28;;;8.21;51.98
12781;BME280;6454;43.304;24.344;2023-04-07T07:27:18;100199.63;;;8.40;51.76
12781;BME280;6454;43.304;24.344;2023-04-07T07:29:45;100241.22;;;8.79;50.65
12781;BME280;6454;43.304;24.344;2023-04-07T07:32:13;100247.16;;;8.86;50.41
12781;BME280;6454;43.304;24.344;2023-04-07T07:34:40;100255.28;;;8.91;50.16
12781;BME280;6454;43.304;24.344;2023-04-07T07:37:07;100167.72;;;8.37;49.45
12781;BME280;6454;43.304;24.344;2023-04-07T07:39:34;100259.31;;;9.14;49.91
12781;BME280;6454;43.304;24.344;2023-04-07T07:42:01;100239.56;;;9.03;48.56
12781;BME280;6454;43.304;24.344;2023-04-07T07:44:28;100266.06;;;9.17;48.89
12781;BME280;6454;43.304;24.344;2023-04-07T07:46:54;100263.59;;;9.25;49.48
12781;BME280;6454;43.304;24.344;2023-04-07T07:49:23;100263.56;;;9.30;49.25
12781;BME280;6454;43.304;24.344;2023-04-07T07:51:49;100246.25;;;9.31;48.70
12781;BME280;6454;43.304;24.344;2023-04-07T07:54:17;100193.06;;;8.86;49.11
12781;BME280;6454;43.304;24.344;2023-04-07T07:56:44;100264.06;;;9.47;47.14
12781;BME280;6454;43.304;24.344;2023-04-07T07:59:11;100263.53;;;9.45;47.72
12781;BME280;6454;43.304;24.344;2023-04-07T08:01:38;100190.34;;;8.91;47.66
12781;BME280;6454;43.304;24.344;2023-04-07T08:04:04;100229.78;;;9.18;45.79
12781;BME280;6454;43.304;24.344;2023-04-07T08:06:33;100293.06;;;9.42;46.67
12781;BME280;6454;43.304;24.344;2023-04-07T08:09:02;100282.75;;;9.44;46.55
12781;BME280;6454;43.304;24.344;2023-04-07T08:11:30;100287.38;;;9.33;46.96
12781;BME280;6454;43.304;24.344;2023-04-07T08:13:57;100288.22;;;9.24;47.73
12781;BME280;6454;43.304;24.344;2023-04-07T08:16:24;100292.00;;;9.33;48.05
12781;BME280;6454;43.304;24.344;2023-04-07T08:18:51;100294.69;;;9.38;47.82
12781;BME280;6454;43.304;24.344;2023-04-07T08:21:18;100291.22;;;9.27;47.21
12781;BME280;6454;43.304;24.344;2023-04-07T08:23:46;100290.41;;;9.27;47.77
12781;BME280;6454;43.304;24.344;2023-04-07T08:26:13;100302.28;;;9.26;48.47
12781;BME280;6454;43.304;24.344;2023-04-07T08:28:41;100305.00;;;9.26;48.68
12781;BME280;6454;43.304;24.344;2023-04-07T08:31:08;100299.06;;;9.29;49.67
12781;BME280;6454;43.304;24.344;2023-04-07T08:33:34;100307.47;;;9.27;50.40
12781;BME280;6454;43.304;24.344;2023-04-07T08:36:01;100304.44;;;9.34;49.83
12781;BME280;6454;43.304;24.344;2023-04-07T08:38:28;100306.03;;;9.45;49.36
12781;BME280;6454;43.304;24.344;2023-04-07T08:41:01;100308.47;;;9.51;48.99
12781;BME280;6454;43.304;24.344;2023-04-07T08:43:29;100303.28;;;9.55;48.04
12781;BME280;6454;43.304;24.344;2023-04-07T08:45:58;100311.44;;;9.50;48.10
12781;BME280;6454;43.304;24.344;2023-04-07T08:48:27;100300.06;;;9.53;48.28
12781;BME280;6454;43.304;24.344;2023-04-07T08:50:59;100299.25;;;9.52;48.20
12781;BME280;6454;43.304;24.344;2023-04-07T08:53:35;100303.59;;;9.48;49.50
12781;BME280;6454;43.304;24.344;2023-04-07T08:56:06;100307.66;;;9.51;50.26
12781;BME280;6454;43.304;24.344;2023-04-07T08:58:34;100323.38;;;9.44;48.84
12781;BME280;6454;43.304;24.344;2023-04-07T09:01:03;100306.31;;;9.43;49.20
12781;BME280;6454;43.304;24.344;2023-04-07T09:03:31;100306.00;;;9.60;50.87
12781;BME280;6454;43.304;24.344;2023-04-07T09:05:59;100301.13;;;9.67;50.72
12781;BME280;6454;43.304;24.344;2023-04-07T09:08:26;100305.13;;;9.80;51.11
12781;BME280;6454;43.304;24.344;2023-04-07T09:10:54;100312.16;;;9.81;49.66
12781;BME280;6454;43.304;24.344;2023-04-07T09:13:24;100288.38;;;9.62;50.79
12781;BME280;6454;43.304;24.344;2023-04-07T09:15:51;100308.91;;;9.79;50.96
12781;BME280;6454;43.304;24.344;2023-04-07T09:18:18;100306.78;;;9.70;49.83
12781;BME280;6454;43.304;24.344;2023-04-07T09:20:59;100319.78;;;9.73;50.02
12781;BME280;6454;43.304;24.344;2023-04-07T09:23:29;100317.91;;;9.69;49.38
12781;BME280;6454;43.304;24.344;2023-04-07T09:25:56;100318.97;;;9.63;50.68
12781;BME280;6454;43.304;24.344;2023-04-07T09:28:40;100317.91;;;9.64;50.79
12781;BME280;6454;43.304;24.344;2023-04-07T09:31:07;100313.31;;;9.64;51.24
12781;BME280;6454;43.304;24.344;2023-04-07T09:33:34;100316.00;;;9.69;50.31
12781;BME280;6454;43.304;24.344;2023-04-07T09:36:01;100316.78;;;9.70;51.29
12781;BME280;6454;43.304;24.344;2023-04-07T09:38:33;100309.19;;;9.82;51.68
12781;BME280;6454;43.304;24.344;2023-04-07T09:41:08;100277.81;;;9.66;50.23
12781;BME280;6454;43.304;24.344;2023-04-07T09:43:38;100314.50;;;9.97;49.93
12781;BME280;6454;43.304;24.344;2023-04-07T09:46:10;100305.78;;;10.10;49.40
12781;BME280;6454;43.304;24.344;2023-04-07T09:48:37;100312.75;;;10.31;49.38
12781;BME280;6454;43.304;24.344;2023-04-07T09:51:06;100313.34;;;10.62;49.39
12781;BME280;6454;43.304;24.344;2023-04-07T09:53:42;100302.06;;;10.84;45.50
12781;BME280;6454;43.304;24.344;2023-04-07T09:56:09;100310.03;;;11.04;46.74
12781;BME280;6454;43.304;24.344;2023-04-07T09:58:39;100312.41;;;11.11;46.69
12781;BME280;6454;43.304;24.344;2023-04-07T10:01:06;100315.19;;;11.29;48.21
12781;BME280;6454;43.304;24.344;2023-04-07T10:03:34;100317.34;;;11.32;47.83
12781;BME280;6454;43.304;24.344;2023-04-07T10:06:02;100309.91;;;11.43;48.49
12781;BME280;6454;43.304;24.344;2023-04-07T10:08:31;100249.69;;;10.83;47.94
12781;BME280;6454;43.304;24.344;2023-04-07T10:11:00;100268.44;;;11.09;48.05
12781;BME280;6454;43.304;24.344;2023-04-07T10:13:28;100318.97;;;11.33;47.52
12781;BME280;6454;43.304;24.344;2023-04-07T10:15:57;100325.53;;;11.27;46.38
12781;BME280;6454;43.304;24.344;2023-04-07T10:18:27;100313.78;;;11.08;46.57
12781;BME280;6454;43.304;24.344;2023-04-07T10:20:56;100310.91;;;10.94;46.15
12781;BME280;6454;43.304;24.344;2023-04-07T10:23:30;100323.59;;;11.04;47.50
12781;BME280;6454;43.304;24.344;2023-04-07T10:25:58;100314.34;;;11.05;46.38
12781;BME280;6454;43.304;24.344;2023-04-07T10:28:27;100302.72;;;11.28;48.61
12781;BME280;6454;43.304;24.344;2023-04-07T10:30:57;100269.34;;;10.99;47.19
12781;BME280;6454;43.304;24.344;2023-04-07T10:33:43;100308.22;;;11.23;48.03
12781;BME280;6454;43.304;24.344;2023-04-07T10:36:11;100307.63;;;11.26;48.29
12781;BME280;6454;43.304;24.344;2023-04-07T10:38:38;100287.63;;;10.88;48.10
12781;BME280;6454;43.304;24.344;2023-04-07T10:41:30;100307.41;;;11.23;49.03
12781;BME280;6454;43.304;24.344;2023-04-07T10:43:57;100315.69;;;11.36;48.97
12781;BME280;6454;43.304;24.344;2023-04-07T10:47:01;100322.50;;;11.34;49.12
12781;BME280;6454;43.304;24.344;2023-04-07T10:49:28;100310.31;;;11.31;48.31
12781;BME280;6454;43.304;24.344;2023-04-07T10:52:22;100315.28;;;11.24;49.86
12781;BME280;6454;43.304;24.344;2023-04-07T10:58:13;100319.88;;;11.24;47.82
12781;BME280;6454;43.304;24.344;2023-04-07T11:00:40;100257.09;;;10.73;47.08
12781;BME280;6454;43.304;24.344;2023-04-07T11:03:11;100311.97;;;10.98;47.31
12781;BME280;6454;43.304;24.344;2023-04-07T11:05:38;100319.16;;;11.13;48.43
12781;BME280;6454;43.304;24.344;2023-04-07T11:08:05;100324.72;;;11.27;48.48
12781;BME280;6454;43.304;24.344;2023-04-07T11:10:32;100321.28;;;11.45;49.05
12781;BME280;6454;43.304;24.344;2023-04-07T11:13:05;100323.25;;;11.63;49.21
12781;BME280;6454;43.304;24.344;2023-04-07T11:15:33;100328.78;;;11.82;47.06
12781;BME280;6454;43.304;24.344;2023-04-07T11:18:15;100258.16;;;11.29;47.59
12781;BME280;6454;43.304;24.344;2023-04-07T11:20:47;100328.13;;;11.90;47.93
12781;BME280;6454;43.304;24.344;2023-04-07T11:23:15;100315.16;;;12.05;45.77
12781;BME280;6454;43.304;24.344;2023-04-07T11:25:44;100310.03;;;12.04;48.67
12781;BME280;6454;43.304;24.344;2023-04-07T11:28:12;100302.53;;;12.14;47.12
12781;BME280;6454;43.304;24.344;2023-04-07T11:30:45;100271.81;;;11.95;45.31
12781;BME280;6454;43.304;24.344;2023-04-07T11:33:18;100299.66;;;12.06;45.62
12781;BME280;6454;43.304;24.344;2023-04-07T11:35:53;100305.78;;;12.16;45.72
12781;BME280;6454;43.304;24.344;2023-04-07T11:38:22;100310.53;;;12.06;46.27
12781;BME280;6454;43.304;24.344;2023-04-07T11:40:50;100316.81;;;12.06;46.15
12781;BME280;6454;43.304;24.344;2023-04-07T11:43:18;100322.69;;;11.90;46.35
12781;BME280;6454;43.304;24.344;2023-04-07T11:45:47;100331.50;;;11.82;47.13
12781;BME280;6454;43.304;24.344;2023-04-07T11:48:31;100334.19;;;11.58;47.16
12781;BME280;6454;43.304;24.344;2023-04-07T11:50:59;100318.75;;;11.53;47.43
12781;BME280;6454;43.304;24.344;2023-04-07T11:53:27;100327.31;;;11.65;47.71
12781;BME280;6454;43.304;24.344;2023-04-07T11:56:01;100324.47;;;11.81;48.18
12781;BME280;6454;43.304;24.344;2023-04-07T11:58:28;100272.56;;;11.53;46.13
12781;BME280;6454;43.304;24.344;2023-04-07T12:00:55;100328.13;;;11.90;46.20
12781;BME280;6454;43.304;24.344;2023-04-07T12:03:23;100246.91;;;11.41;47.07
12781;BME280;6454;43.304;24.344;2023-04-07T12:05:51;100324.78;;;11.98;48.35
12781;BME280;6454;43.304;24.344;2023-04-07T12:08:18;100332.13;;;11.97;48.17
12781;BME280;6454;43.304;24.344;2023-04-07T12:10:46;100335.78;;;11.88;50.10
12781;BME280;6454;43.304;24.344;2023-04-07T12:13:13;100330.09;;;11.60;50.08
12781;BME280;6454;43.304;24.344;2023-04-07T12:15:40;100330.59;;;11.39;50.80
12781;BME280;6454;43.304;24.344;2023-04-07T12:18:06;100331.06;;;11.17;50.71
12781;BME280;6454;43.304;24.344;2023-04-07T12:20:33;100342.25;;;11.11;51.94
12781;BME280;6454;43.304;24.344;2023-04-07T12:23:02;100339.63;;;11.00;51.91
12781;BME280;6454;43.304;24.344;2023-04-07T12:25:28;100233.13;;;10.17;53.09
12781;BME280;6454;43.304;24.344;2023-04-07T12:27:56;100337.97;;;10.71;53.45
12781;BME280;6454;43.304;24.344;2023-04-07T12:30:22;100337.41;;;10.74;53.54
12781;BME280;6454;43.304;24.344;2023-04-07T12:32:50;100356.94;;;10.76;52.81
12781;BME280;6454;43.304;24.344;2023-04-07T12:35:17;100354.50;;;10.74;52.55
12781;BME280;6454;43.304;24.344;2023-04-07T12:37:43;100231.19;;;9.74;54.02
12781;BME280;6454;43.304;24.344;2023-04-07T12:40:12;100344.31;;;10.56;56.30
12781;BME280;6454;43.304;24.344;2023-04-07T12:42:40;100343.09;;;10.72;56.11
12781;BME280;6454;43.304;24.344;2023-04-07T12:45:07;100272.41;;;10.20;55.69
12781;BME280;6454;43.304;24.344;2023-04-07T12:47:34;100231.59;;;10.01;55.63
12781;BME280;6454;43.304;24.344;2023-04-07T12:50:01;100240.59;;;9.87;55.53
12781;BME280;6454;43.304;24.344;2023-04-07T12:52:28;100347.75;;;10.72;55.74
12781;BME280;6454;43.304;24.344;2023-04-07T12:54:55;100353.63;;;10.84;55.55
12781;BME280;6454;43.304;24.344;2023-04-07T12:57:24;100358.47;;;10.87;54.16
12781;BME280;6454;43.304;24.344;2023-04-07T12:59:51;100354.81;;;10.68;54.63
12781;BME280;6454;43.304;24.344;2023-04-07T13:02:18;100361.06;;;10.68;55.00
12781;BME280;6454;43.304;24.344;2023-04-07T13:04:45;100360.28;;;10.63;54.84
12781;BME280;6454;43.304;24.344;2023-04-07T13:07:13;100366.78;;;10.67;55.17